createdAt,value
2023-02-17T00:00:52.753Z,12.80
2023-02-17T00:01:54.716Z,12.80
2023-02-17T00:02:58.064Z,12.80
2023-02-17T00:04:01.655Z,12.80
2023-02-17T00:05:04.879Z,12.80
2023-02-17T00:06:08.267Z,12.80
2023-02-17T00:07:11.319Z,12.80
2023-02-17T00:08:13.354Z,12.80
2023-02-17T00:09:16.632Z,12.80
2023-02-17T00:10:19.182Z,12.70
2023-02-17T00:11:22.227Z,12.70
2023-02-17T00:12:24.641Z,12.70
2023-02-17T00:13:27.665Z,12.70
2023-02-17T00:14:29.679Z,12.70
2023-02-17T00:15:32.648Z,12.70
2023-02-17T00:16:34.651Z,12.60
2023-02-17T00:17:37.682Z,12.60
2023-02-17T00:18:39.714Z,12.60
2023-02-17T00:19:44.017Z,12.50
2023-02-17T00:20:46.126Z,12.50
2023-02-17T00:21:49.056Z,12.50
2023-02-17T00:22:51.061Z,12.50
2023-02-17T00:23:54.219Z,12.50
2023-02-17T00:24:56.251Z,12.50
2023-02-17T00:25:59.286Z,12.50
2023-02-17T00:27:02.260Z,12.50
2023-02-17T00:28:04.732Z,12.50
2023-02-17T00:29:07.784Z,12.60
2023-02-17T00:30:10.444Z,12.60
2023-02-17T00:31:17.771Z,12.60
2023-02-17T00:32:19.824Z,12.60
2023-02-17T00:33:22.778Z,12.60
2023-02-17T00:34:25.326Z,12.60
2023-02-17T00:35:29.967Z,12.60
2023-02-17T00:36:32.078Z,12.60
2023-02-17T00:37:36.327Z,12.60
2023-02-17T00:38:38.345Z,12.60
2023-02-17T00:39:41.376Z,12.70
2023-02-17T00:40:43.657Z,12.60
2023-02-17T00:41:46.663Z,12.70
2023-02-17T00:42:48.998Z,12.60
2023-02-17T00:43:52.061Z,12.60
2023-02-17T00:44:55.070Z,12.70
2023-02-17T00:45:57.215Z,12.70
2023-02-17T00:47:00.191Z,12.60
2023-02-17T00:48:02.359Z,12.60
2023-02-17T00:49:05.355Z,12.60
2023-02-17T00:50:08.454Z,12.60
2023-02-17T00:51:13.268Z,12.60
2023-02-17T00:52:15.259Z,12.60
2023-02-17T00:53:18.258Z,12.60
2023-02-17T00:54:20.865Z,12.60
2023-02-17T00:55:23.858Z,12.60
2023-02-17T00:56:26.086Z,12.60
2023-02-17T00:57:32.161Z,12.60
2023-02-17T00:58:35.606Z,12.60
2023-02-17T00:59:37.685Z,12.60
2023-02-17T01:00:44.185Z,12.60
2023-02-17T01:01:46.290Z,12.60
2023-02-17T01:02:49.278Z,12.60
2023-02-17T01:03:52.042Z,12.60
2023-02-17T01:04:55.131Z,12.60
2023-02-17T01:05:57.583Z,12.60
2023-02-17T01:07:01.894Z,12.50
2023-02-17T01:08:04.102Z,12.50
2023-02-17T01:09:09.296Z,12.50
2023-02-17T01:10:11.784Z,12.60
2023-02-17T01:11:18.709Z,12.60
2023-02-17T01:12:20.758Z,12.60
2023-02-17T01:13:23.751Z,12.50
2023-02-17T01:14:25.852Z,12.50
2023-02-17T01:15:32.812Z,12.50
2023-02-17T01:16:37.948Z,12.50
2023-02-17T01:17:40.964Z,12.50
2023-02-17T01:18:43.002Z,12.60
2023-02-17T01:19:47.642Z,12.50
2023-02-17T01:20:52.366Z,12.50
2023-02-17T01:21:55.346Z,12.50
2023-02-17T01:22:58.733Z,12.60
2023-02-17T01:24:04.325Z,12.50
2023-02-17T01:25:07.275Z,12.50
2023-02-17T01:26:15.078Z,12.50
2023-02-17T01:27:17.064Z,12.50
2023-02-17T01:28:21.971Z,12.50
2023-02-17T01:29:23.966Z,12.50
2023-02-17T01:30:27.055Z,12.50
2023-02-17T01:31:29.511Z,12.50
2023-02-17T01:32:32.621Z,12.50
2023-02-17T01:33:34.687Z,12.50
2023-02-17T01:34:38.505Z,12.50
2023-02-17T01:35:42.146Z,12.50
2023-02-17T01:36:45.103Z,12.50
2023-02-17T01:37:47.102Z,12.50
2023-02-17T01:38:51.686Z,12.50
2023-02-17T01:39:53.693Z,12.50
2023-02-17T01:40:56.976Z,12.50
2023-02-17T01:41:59.041Z,12.50
2023-02-17T01:43:02.074Z,12.50
2023-02-17T01:44:13.480Z,12.40
2023-02-17T01:45:36.172Z,12.40
2023-02-17T01:46:39.602Z,12.30
2023-02-17T01:47:42.892Z,12.30
2023-02-17T01:48:50.778Z,12.40
2023-02-17T01:49:53.779Z,12.30
2023-02-17T01:51:02.332Z,12.40
2023-02-17T01:52:11.485Z,12.30
2023-02-17T01:53:18.251Z,12.30
2023-02-17T01:54:27.875Z,12.30
2023-02-17T01:55:32.019Z,12.30
2023-02-17T01:56:38.157Z,12.30
2023-02-17T01:57:41.865Z,12.30
2023-02-17T01:58:47.828Z,12.40
2023-02-17T01:59:51.083Z,12.40
2023-02-17T02:00:56.102Z,12.40
2023-02-17T02:02:00.917Z,12.40
2023-02-17T02:03:07.454Z,12.40
2023-02-17T02:04:10.503Z,12.40
2023-02-17T02:05:19.828Z,12.40
2023-02-17T02:06:26.243Z,12.40
2023-02-17T02:07:32.961Z,12.40
2023-02-17T02:08:42.906Z,12.40
2023-02-17T02:09:51.570Z,12.50
2023-02-17T02:10:53.594Z,12.40
2023-02-17T02:11:56.608Z,12.40
2023-02-17T02:12:58.651Z,12.40
2023-02-17T02:14:02.979Z,12.40
2023-02-17T02:15:09.001Z,12.50
2023-02-17T02:16:18.804Z,12.50
2023-02-17T02:17:32.855Z,12.50
2023-02-17T02:18:44.863Z,12.40
2023-02-17T02:20:15.157Z,12.40
2023-02-17T02:21:58.122Z,12.40
2023-02-17T02:23:40.753Z,12.40
2023-02-17T02:24:54.867Z,12.40
2023-02-17T02:26:24.121Z,12.40
2023-02-17T02:27:43.510Z,12.40
2023-02-17T02:29:04.447Z,12.40
2023-02-17T02:30:34.219Z,12.40
2023-02-17T02:31:43.930Z,12.30
2023-02-17T02:32:57.822Z,12.40
2023-02-17T02:34:04.875Z,12.40
2023-02-17T02:35:14.535Z,12.40
2023-02-17T02:36:20.491Z,12.30
2023-02-17T02:37:31.376Z,12.30
2023-02-17T02:38:40.626Z,12.30
2023-02-17T02:39:47.764Z,12.30
2023-02-17T02:40:57.573Z,12.30
2023-02-17T02:42:06.510Z,12.40
2023-02-17T02:43:08.742Z,12.40
2023-02-17T02:44:13.899Z,12.30
2023-02-17T02:45:17.308Z,12.40
2023-02-17T02:46:20.442Z,12.30
2023-02-17T02:47:49.957Z,12.30
2023-02-17T02:48:57.597Z,12.30
2023-02-17T02:49:59.489Z,12.30
2023-02-17T02:51:07.100Z,12.30
2023-02-17T02:52:13.427Z,12.30
2023-02-17T02:53:25.139Z,12.20
2023-02-17T02:54:30.174Z,12.20
2023-02-17T02:55:38.605Z,12.20
2023-02-17T02:56:48.613Z,12.20
2023-02-17T02:57:52.659Z,12.20
2023-02-17T02:59:01.885Z,12.20
2023-02-17T03:00:10.764Z,12.20
2023-02-17T03:01:16.019Z,12.10
2023-02-17T03:02:23.244Z,12.20
2023-02-17T03:03:29.390Z,12.10
2023-02-17T03:04:37.677Z,12.20
2023-02-17T03:05:47.036Z,12.10
2023-02-17T03:06:51.861Z,12.10
2023-02-17T03:07:56.144Z,12.10
2023-02-17T03:09:01.996Z,12.10
2023-02-17T03:10:04.161Z,12.10
2023-02-17T03:11:07.643Z,12.10
2023-02-17T03:12:10.883Z,12.10
2023-02-17T03:13:13.781Z,12.10
2023-02-17T03:14:17.499Z,12.10
2023-02-17T03:15:22.801Z,12.10
2023-02-17T03:16:24.737Z,12.10
2023-02-17T03:17:27.651Z,12.10
2023-02-17T03:18:31.750Z,12.10
2023-02-17T03:19:36.285Z,12.10
2023-02-17T03:20:39.707Z,12.00
2023-02-17T03:21:44.321Z,12.10
2023-02-17T03:22:47.687Z,12.10
2023-02-17T03:23:51.258Z,12.10
2023-02-17T03:24:53.199Z,12.10
2023-02-17T03:25:56.195Z,12.00
2023-02-17T03:26:58.548Z,12.10
2023-02-17T03:28:01.440Z,12.10
2023-02-17T03:29:03.485Z,12.10
2023-02-17T03:30:07.412Z,12.10
2023-02-17T03:31:09.402Z,12.10
2023-02-17T03:32:12.441Z,12.10
2023-02-17T03:33:14.359Z,12.10
2023-02-17T03:34:17.343Z,12.10
2023-02-17T03:35:20.653Z,12.10
2023-02-17T03:36:24.454Z,12.10
2023-02-17T03:37:26.742Z,12.10
2023-02-17T03:38:29.625Z,12.10
2023-02-17T03:39:31.794Z,12.10
2023-02-17T03:40:34.692Z,12.10
2023-02-17T03:41:36.596Z,12.20
2023-02-17T03:42:39.473Z,12.20
2023-02-17T03:43:41.387Z,12.20
2023-02-17T03:44:44.304Z,12.10
2023-02-17T03:45:46.167Z,12.10
2023-02-17T03:46:49.034Z,12.20
2023-02-17T03:47:50.954Z,12.10
2023-02-17T03:48:53.914Z,12.20
2023-02-17T03:49:55.811Z,12.10
2023-02-17T03:51:00.110Z,12.10
2023-02-17T03:52:01.969Z,12.10
2023-02-17T03:53:05.325Z,12.10
2023-02-17T03:54:07.244Z,12.20
2023-02-17T03:55:10.235Z,12.10
2023-02-17T03:56:13.038Z,12.20
2023-02-17T03:57:15.896Z,12.10
2023-02-17T03:58:17.991Z,12.20
2023-02-17T03:59:20.902Z,12.10
2023-02-17T04:00:23.117Z,12.10
2023-02-17T04:01:27.064Z,12.10
2023-02-17T04:02:29.062Z,12.20
2023-02-17T04:03:32.034Z,12.20
2023-02-17T04:04:33.945Z,12.20
2023-02-17T04:05:36.812Z,12.20
2023-02-17T04:06:40.098Z,12.20
2023-02-17T04:07:42.987Z,12.20
2023-02-17T04:08:44.901Z,12.20
2023-02-17T04:09:48.147Z,12.20
2023-02-17T04:10:52.584Z,12.20
2023-02-17T04:11:55.690Z,12.20
2023-02-17T04:12:57.753Z,12.20
2023-02-17T04:14:00.875Z,12.20
2023-02-17T04:15:02.957Z,12.20
2023-02-17T04:16:07.442Z,12.20
2023-02-17T04:17:09.637Z,12.20
2023-02-17T04:18:12.768Z,12.20
2023-02-17T04:19:14.759Z,12.20
2023-02-17T04:20:17.860Z,12.20
2023-02-17T04:21:20.217Z,12.20
2023-02-17T04:22:24.577Z,12.20
2023-02-17T04:23:27.155Z,12.20
2023-02-17T04:24:30.131Z,12.20
2023-02-17T04:25:34.481Z,12.20
2023-02-17T04:26:37.484Z,12.10
2023-02-17T04:27:39.562Z,12.10
2023-02-17T04:28:43.207Z,12.10
2023-02-17T04:29:45.293Z,12.10
2023-02-17T04:30:50.144Z,12.10
2023-02-17T04:31:52.458Z,12.10
2023-02-17T04:32:55.569Z,12.10
2023-02-17T04:33:57.766Z,12.10
2023-02-17T04:35:00.765Z,12.10
2023-02-17T04:36:02.860Z,12.10
2023-02-17T04:37:06.196Z,12.10
2023-02-17T04:38:10.577Z,12.10
2023-02-17T04:39:13.610Z,12.10
2023-02-17T04:40:16.038Z,12.10
2023-02-17T04:41:19.064Z,12.00
2023-02-17T04:42:21.063Z,12.10
2023-02-17T04:43:24.463Z,12.10
2023-02-17T04:44:26.540Z,12.10
2023-02-17T04:45:29.660Z,12.00
2023-02-17T04:46:32.771Z,12.00
2023-02-17T04:47:35.083Z,12.00
2023-02-17T04:48:38.172Z,12.00
2023-02-17T04:49:40.200Z,12.00
2023-02-17T04:50:43.202Z,12.00
2023-02-17T04:51:45.239Z,12.00
2023-02-17T04:52:48.375Z,12.00
2023-02-17T04:53:51.743Z,12.00
2023-02-17T04:54:54.796Z,12.00
2023-02-17T04:55:56.949Z,12.00
2023-02-17T04:56:59.979Z,12.00
2023-02-17T04:58:02.021Z,12.00
2023-02-17T04:59:05.014Z,12.00
2023-02-17T05:00:08.684Z,11.90
2023-02-17T05:01:11.755Z,11.90
2023-02-17T05:02:13.862Z,11.90
2023-02-17T05:03:17.144Z,11.90
2023-02-17T05:04:19.336Z,11.90
2023-02-17T05:05:22.381Z,11.90
2023-02-17T05:06:24.378Z,11.90
2023-02-17T05:07:27.547Z,11.90
2023-02-17T05:08:29.636Z,11.90
2023-02-17T05:09:34.167Z,11.90
2023-02-17T05:10:36.299Z,11.90
2023-02-17T05:11:39.331Z,11.90
2023-02-17T05:12:41.621Z,11.90
2023-02-17T05:13:44.571Z,11.90
2023-02-17T05:14:46.658Z,11.90
2023-02-17T05:15:49.799Z,11.90
2023-02-17T05:16:51.911Z,11.90
2023-02-17T05:17:54.913Z,11.90
2023-02-17T05:18:57.894Z,11.90
2023-02-17T05:20:00.197Z,11.80
2023-02-17T05:21:03.439Z,11.80
2023-02-17T05:22:05.572Z,11.80
2023-02-17T05:23:08.726Z,11.80
2023-02-17T05:24:10.771Z,11.80
2023-02-17T05:25:15.327Z,11.80
2023-02-17T05:26:17.365Z,11.80
2023-02-17T05:27:20.717Z,11.80
2023-02-17T05:28:22.790Z,11.80
2023-02-17T05:29:25.953Z,11.70
2023-02-17T05:30:29.006Z,11.70
2023-02-17T05:31:31.115Z,11.70
2023-02-17T05:32:34.273Z,11.70
2023-02-17T05:33:36.396Z,11.70
2023-02-17T05:34:39.853Z,11.70
2023-02-17T05:35:42.958Z,11.70
2023-02-17T05:36:45.105Z,11.70
2023-02-17T05:37:48.195Z,11.70
2023-02-17T05:38:51.189Z,11.70
2023-02-17T05:39:54.192Z,11.70
2023-02-17T05:40:57.577Z,11.70
2023-02-17T05:42:00.578Z,11.70
2023-02-17T05:43:02.626Z,11.70
2023-02-17T05:44:05.971Z,11.70
2023-02-17T05:45:09.622Z,11.70
2023-02-17T05:46:12.065Z,11.70
2023-02-17T05:47:15.121Z,11.70
2023-02-17T05:48:17.252Z,11.70
2023-02-17T05:49:20.316Z,11.70
2023-02-17T05:50:22.427Z,11.70
2023-02-17T05:51:25.547Z,11.70
2023-02-17T05:52:27.643Z,11.70
2023-02-17T05:53:30.676Z,11.70
2023-02-17T05:54:32.827Z,11.70
2023-02-17T05:55:35.879Z,11.70
2023-02-17T05:56:39.240Z,11.70
2023-02-17T05:57:42.312Z,11.70
2023-02-17T05:58:44.414Z,11.70
2023-02-17T05:59:47.531Z,11.70
2023-02-17T06:00:49.618Z,11.70
2023-02-17T06:01:52.655Z,11.60
2023-02-17T06:02:56.993Z,11.60
2023-02-17T06:03:59.620Z,11.60
2023-02-17T06:05:02.745Z,11.60
2023-02-17T06:06:06.357Z,11.60
2023-02-17T06:07:09.572Z,11.60
2023-02-17T06:08:11.657Z,11.60
2023-02-17T06:09:15.395Z,11.60
2023-02-17T06:10:17.681Z,11.60
2023-02-17T06:11:20.657Z,11.60
2023-02-17T06:12:25.140Z,11.60
2023-02-17T06:13:27.208Z,11.50
2023-02-17T06:14:30.359Z,11.50
2023-02-17T06:15:32.447Z,11.50
2023-02-17T06:16:35.505Z,11.50
2023-02-17T06:17:37.617Z,11.50
2023-02-17T06:18:40.631Z,11.50
2023-02-17T06:19:42.623Z,11.50
2023-02-17T06:20:45.963Z,11.50
2023-02-17T06:21:48.028Z,11.50
2023-02-17T06:22:51.054Z,11.50
2023-02-17T06:23:53.109Z,11.50
2023-02-17T06:24:56.216Z,11.50
2023-02-17T06:25:58.270Z,11.40
2023-02-17T06:27:02.378Z,11.40
2023-02-17T06:28:05.912Z,11.40
2023-02-17T06:29:09.039Z,11.40
2023-02-17T06:30:12.205Z,11.40
2023-02-17T06:31:15.314Z,11.40
2023-02-17T06:32:17.447Z,11.40
2023-02-17T06:33:20.471Z,11.40
2023-02-17T06:34:22.710Z,11.40
2023-02-17T06:35:26.031Z,11.40
2023-02-17T06:36:28.152Z,11.40
2023-02-17T06:37:31.203Z,11.40
2023-02-17T06:38:33.658Z,11.30
2023-02-17T06:39:36.666Z,11.30
2023-02-17T06:40:39.039Z,11.30
2023-02-17T06:41:42.750Z,11.30
2023-02-17T06:42:44.799Z,11.30
2023-02-17T06:43:49.169Z,11.30
2023-02-17T06:44:51.331Z,11.20
2023-02-17T06:45:54.570Z,11.20
2023-02-17T06:46:59.253Z,11.20
2023-02-17T06:48:01.426Z,11.20
2023-02-17T06:49:04.555Z,11.20
2023-02-17T06:50:08.285Z,11.20
2023-02-17T06:51:11.410Z,11.20
2023-02-17T06:52:13.533Z,11.20
2023-02-17T06:53:16.507Z,11.20
2023-02-17T06:54:19.569Z,11.20
2023-02-17T06:55:22.654Z,11.20
2023-02-17T06:56:25.750Z,11.10
2023-02-17T06:57:27.787Z,11.20
2023-02-17T06:58:32.638Z,11.10
2023-02-17T06:59:36.134Z,11.10
2023-02-17T07:00:39.149Z,11.10
2023-02-17T07:01:41.198Z,11.10
2023-02-17T07:02:44.308Z,11.20
2023-02-17T07:03:47.081Z,11.10
2023-02-17T07:04:50.306Z,11.20
2023-02-17T07:05:57.375Z,11.20
2023-02-17T07:07:00.453Z,11.20
2023-02-17T07:08:02.583Z,11.20
2023-02-17T07:09:05.698Z,11.20
2023-02-17T07:10:10.137Z,11.20
2023-02-17T07:11:13.917Z,11.20
2023-02-17T07:12:16.957Z,11.20
2023-02-17T07:13:19.961Z,11.20
2023-02-17T07:14:23.442Z,11.20
2023-02-17T07:15:29.364Z,11.20
2023-02-17T07:16:31.628Z,11.30
2023-02-17T07:17:34.667Z,11.20
2023-02-17T07:18:37.778Z,11.30
2023-02-17T07:19:40.826Z,11.30
2023-02-17T07:20:42.894Z,11.30
2023-02-17T07:21:46.665Z,11.30
2023-02-17T07:22:48.737Z,11.30
2023-02-17T07:23:51.801Z,11.30
2023-02-17T07:24:53.921Z,11.30
2023-02-17T07:25:56.954Z,11.30
2023-02-17T07:27:00.839Z,11.30
2023-02-17T07:28:03.843Z,11.30
2023-02-17T07:29:07.189Z,11.30
2023-02-17T07:30:11.146Z,11.30
2023-02-17T07:31:17.984Z,11.20
2023-02-17T07:32:20.089Z,11.20
2023-02-17T07:33:23.201Z,11.30
2023-02-17T07:34:26.306Z,11.30
2023-02-17T07:35:28.354Z,11.20
2023-02-17T07:36:31.543Z,11.20
2023-02-17T07:37:34.532Z,11.20
2023-02-17T07:38:36.919Z,11.20
2023-02-17T07:39:40.083Z,11.20
2023-02-17T07:40:42.108Z,11.20
2023-02-17T07:41:45.160Z,11.20
2023-02-17T07:42:47.216Z,11.20
2023-02-17T07:43:50.620Z,11.20
2023-02-17T07:44:52.678Z,11.20
2023-02-17T07:45:58.953Z,11.20
2023-02-17T07:47:02.706Z,11.10
2023-02-17T07:48:06.313Z,11.20
2023-02-17T07:49:08.711Z,11.10
2023-02-17T07:50:12.321Z,11.10
2023-02-17T07:51:15.946Z,11.10
2023-02-17T07:52:19.379Z,11.10
2023-02-17T07:53:21.439Z,11.10
2023-02-17T07:54:24.499Z,11.10
2023-02-17T07:55:27.806Z,11.10
2023-02-17T07:56:31.175Z,11.10
2023-02-17T07:57:33.223Z,11.10
2023-02-17T07:58:38.179Z,11.10
2023-02-17T07:59:40.412Z,11.10
2023-02-17T08:00:43.707Z,11.10
2023-02-17T08:01:46.746Z,11.10
2023-02-17T08:02:50.114Z,11.10
2023-02-17T08:03:54.103Z,11.10
2023-02-17T08:04:57.153Z,11.10
2023-02-17T08:05:59.192Z,11.10
2023-02-17T08:07:02.317Z,11.10
2023-02-17T08:08:22.953Z,11.10
2023-02-17T08:09:43.441Z,11.10
2023-02-17T08:11:04.328Z,11.10
2023-02-17T08:12:27.962Z,11.10
2023-02-17T08:13:30.970Z,11.10
2023-02-17T08:14:34.225Z,11.10
2023-02-17T08:15:36.417Z,11.00
2023-02-17T08:16:39.482Z,11.10
2023-02-17T08:17:43.130Z,11.00
2023-02-17T08:18:47.473Z,11.10
2023-02-17T08:19:49.690Z,11.00
2023-02-17T08:20:53.011Z,11.00
2023-02-17T08:21:55.222Z,11.10
2023-02-17T08:22:58.373Z,11.00
2023-02-17T08:24:00.367Z,11.00
2023-02-17T08:25:05.731Z,11.00
2023-02-17T08:26:08.973Z,11.00
2023-02-17T08:27:11.410Z,11.10
2023-02-17T08:28:14.555Z,11.00
2023-02-17T08:29:17.039Z,11.00
2023-02-17T08:30:20.410Z,11.10
2023-02-17T08:31:25.067Z,11.10
2023-02-17T08:32:28.383Z,11.10
2023-02-17T08:33:31.698Z,11.10
2023-02-17T08:34:36.586Z,11.10
2023-02-17T08:35:39.616Z,11.20
2023-02-17T08:36:42.689Z,11.10
2023-02-17T08:37:44.968Z,11.20
2023-02-17T08:38:50.397Z,11.20
2023-02-17T08:39:53.578Z,11.20
2023-02-17T08:40:55.722Z,11.20
2023-02-17T08:41:58.845Z,11.20
2023-02-17T08:43:03.394Z,11.20
2023-02-17T08:44:10.390Z,11.20
2023-02-17T08:45:14.356Z,11.20
2023-02-17T08:46:18.906Z,11.20
2023-02-17T08:47:21.030Z,11.20
2023-02-17T08:48:24.032Z,11.20
2023-02-17T08:49:28.420Z,11.20
2023-02-17T08:50:33.525Z,11.20
2023-02-17T08:51:36.800Z,11.20
2023-02-17T08:52:39.849Z,11.10
2023-02-17T08:53:42.252Z,11.10
2023-02-17T08:54:45.720Z,11.10
2023-02-17T08:55:49.703Z,11.00
2023-02-17T08:56:53.009Z,11.00
2023-02-17T08:57:55.279Z,10.90
2023-02-17T08:58:58.797Z,10.80
2023-02-17T09:00:01.939Z,10.80
2023-02-17T09:01:05.512Z,10.70
2023-02-17T09:02:08.102Z,10.70
2023-02-17T09:03:11.258Z,10.60
2023-02-17T09:04:16.220Z,10.50
2023-02-17T09:05:18.549Z,10.50
2023-02-17T09:06:23.102Z,10.50
2023-02-17T09:07:25.198Z,10.50
2023-02-17T09:08:28.243Z,10.50
2023-02-17T09:09:31.381Z,10.50
2023-02-17T09:10:34.501Z,10.50
2023-02-17T09:11:38.074Z,10.50
2023-02-17T09:12:41.656Z,10.50
2023-02-17T09:13:44.788Z,10.50
2023-02-17T09:14:47.809Z,10.50
2023-02-17T09:15:53.967Z,10.50
2023-02-17T09:16:58.282Z,10.60
2023-02-17T09:18:01.312Z,10.60
2023-02-17T09:19:04.639Z,10.60
2023-02-17T09:20:19.534Z,10.70
2023-02-17T09:21:28.606Z,10.70
2023-02-17T09:22:32.348Z,10.80
2023-02-17T09:23:36.007Z,10.90
2023-02-17T09:24:40.108Z,10.90
2023-02-17T09:25:43.449Z,10.90
2023-02-17T09:26:46.749Z,10.90
2023-02-17T09:27:50.204Z,10.90
2023-02-17T09:28:53.267Z,10.90
2023-02-17T09:29:56.385Z,10.90
2023-02-17T09:30:59.544Z,10.90
2023-02-17T09:32:02.951Z,10.90
2023-02-17T09:33:05.478Z,10.90
2023-02-17T09:34:08.511Z,10.90
2023-02-17T09:35:11.828Z,10.90
2023-02-17T09:36:18.141Z,11.00
2023-02-17T09:37:21.912Z,11.00
2023-02-17T09:38:25.110Z,11.00
2023-02-17T09:39:28.162Z,11.00
2023-02-17T09:40:42.997Z,11.00
2023-02-17T09:41:48.182Z,11.00
2023-02-17T09:42:51.606Z,11.00
2023-02-17T09:43:56.202Z,11.00
2023-02-17T09:45:04.031Z,11.00
2023-02-17T09:46:16.945Z,11.00
2023-02-17T09:47:24.457Z,11.10
2023-02-17T09:48:32.101Z,11.10
2023-02-17T09:49:40.520Z,11.10
2023-02-17T09:50:49.183Z,11.10
2023-02-17T09:52:00.831Z,11.10
2023-02-17T09:53:10.833Z,11.10
2023-02-17T09:54:19.046Z,11.10
2023-02-17T09:55:26.593Z,11.10
2023-02-17T09:56:34.983Z,11.10
2023-02-17T09:57:43.206Z,11.10
2023-02-17T09:58:51.572Z,11.10
2023-02-17T09:59:58.612Z,11.20
2023-02-17T10:01:04.157Z,11.30
2023-02-17T10:02:12.006Z,11.40
2023-02-17T10:03:20.127Z,11.40
2023-02-17T10:04:27.275Z,11.50
2023-02-17T10:05:37.327Z,11.50
2023-02-17T10:06:42.914Z,11.50
2023-02-17T10:07:50.214Z,11.60
2023-02-17T10:09:00.201Z,11.60
2023-02-17T10:10:08.375Z,11.60
2023-02-17T10:11:18.702Z,11.70
2023-02-17T10:12:25.858Z,11.70
2023-02-17T10:13:32.684Z,11.70
2023-02-17T10:14:41.161Z,11.70
2023-02-17T10:15:49.593Z,11.80
2023-02-17T10:17:00.953Z,11.90
2023-02-17T10:18:11.596Z,12.00
2023-02-17T10:19:17.354Z,12.00
2023-02-17T10:20:26.617Z,12.10
2023-02-17T10:21:35.056Z,12.10
2023-02-17T10:22:40.935Z,12.20
2023-02-17T10:23:46.112Z,12.30
2023-02-17T10:24:51.347Z,12.30
2023-02-17T10:26:13.784Z,12.40
2023-02-17T10:27:28.576Z,12.50
2023-02-17T10:28:43.948Z,12.50
2023-02-17T10:29:56.964Z,12.60
2023-02-17T10:31:04.903Z,12.60
2023-02-17T10:32:20.157Z,12.50
2023-02-17T10:33:29.888Z,12.30
2023-02-17T10:34:37.405Z,12.30
2023-02-17T10:35:50.291Z,12.30
2023-02-17T10:37:00.761Z,12.20
2023-02-17T10:38:15.182Z,12.10
2023-02-17T10:39:37.952Z,12.10
2023-02-17T10:40:44.962Z,12.00
2023-02-17T10:41:50.945Z,12.00
2023-02-17T10:42:57.054Z,12.10
2023-02-17T10:44:01.608Z,12.00
2023-02-17T10:45:07.611Z,12.00
2023-02-17T10:46:12.768Z,12.00
2023-02-17T10:47:16.191Z,12.00
2023-02-17T10:48:22.357Z,12.00
2023-02-17T10:49:30.050Z,12.00
2023-02-17T10:50:33.420Z,12.00
2023-02-17T10:51:35.584Z,12.10
2023-02-17T10:52:41.298Z,12.20
2023-02-17T10:53:48.236Z,12.30
2023-02-17T10:54:55.314Z,12.30
2023-02-17T10:56:05.944Z,12.40
2023-02-17T10:57:12.121Z,12.40
2023-02-17T10:58:23.054Z,12.40
2023-02-17T10:59:30.888Z,12.40
2023-02-17T11:00:33.454Z,12.40
2023-02-17T11:01:38.089Z,12.50
2023-02-17T11:02:43.086Z,12.40
2023-02-17T11:03:46.153Z,12.40
2023-02-17T11:04:51.036Z,12.40
2023-02-17T11:05:56.285Z,12.40
2023-02-17T11:07:00.998Z,12.40
2023-02-17T11:08:07.169Z,12.40
2023-02-17T11:09:21.257Z,12.40
2023-02-17T11:10:28.178Z,12.40
2023-02-17T11:11:34.113Z,12.50
2023-02-17T11:12:42.255Z,12.60
2023-02-17T11:13:57.627Z,12.60
2023-02-17T11:15:03.951Z,12.60
2023-02-17T11:16:08.020Z,12.50
2023-02-17T11:17:17.503Z,12.60
2023-02-17T11:18:25.802Z,12.60
2023-02-17T11:19:33.732Z,12.60
2023-02-17T11:20:37.860Z,12.60
2023-02-17T11:21:44.722Z,12.60
2023-02-17T11:22:49.895Z,12.50
2023-02-17T11:23:57.225Z,12.50
2023-02-17T11:25:00.390Z,12.60
2023-02-17T11:26:10.972Z,12.60
2023-02-17T11:27:25.749Z,12.60
2023-02-17T11:28:29.469Z,12.50
2023-02-17T11:29:34.135Z,12.50
2023-02-17T11:30:38.605Z,12.50
2023-02-17T11:31:41.691Z,12.50
2023-02-17T11:32:43.849Z,12.60
2023-02-17T11:33:46.839Z,12.60
2023-02-17T11:34:58.160Z,12.60
2023-02-17T11:36:02.179Z,12.70
2023-02-17T11:37:19.693Z,12.70
2023-02-17T11:38:25.752Z,12.70
2023-02-17T11:39:29.345Z,12.80
2023-02-17T11:40:33.921Z,12.80
2023-02-17T11:41:39.803Z,12.70
2023-02-17T11:42:44.128Z,12.80
2023-02-17T11:43:55.144Z,12.70
2023-02-17T11:44:59.912Z,12.80
2023-02-17T11:46:12.962Z,12.80
2023-02-17T11:47:26.058Z,12.80
2023-02-17T11:48:46.681Z,12.80
2023-02-17T11:50:12.704Z,12.80
2023-02-17T11:51:23.594Z,12.80
2023-02-17T11:52:49.422Z,12.80
2023-02-17T11:54:02.534Z,12.90
2023-02-17T11:55:19.754Z,12.90
2023-02-17T11:56:26.707Z,12.90
2023-02-17T11:57:39.408Z,12.80
2023-02-17T11:59:00.326Z,12.80
2023-02-17T12:00:14.740Z,12.70
2023-02-17T12:01:30.853Z,12.70
2023-02-17T12:03:04.019Z,12.80
2023-02-17T12:04:26.041Z,12.80
2023-02-17T12:05:39.698Z,12.90
2023-02-17T12:06:49.569Z,12.90
2023-02-17T12:08:09.448Z,13.00
2023-02-17T12:09:20.796Z,13.10
2023-02-17T12:10:34.192Z,13.10
2023-02-17T12:11:45.211Z,13.20
2023-02-17T12:13:16.595Z,13.30
2023-02-17T12:14:42.014Z,13.40
2023-02-17T12:15:56.870Z,13.40
2023-02-17T12:17:06.754Z,13.50
2023-02-17T12:18:27.648Z,13.50
2023-02-17T12:19:41.192Z,13.30
2023-02-17T12:20:51.713Z,13.30
2023-02-17T12:22:03.308Z,13.30
2023-02-17T12:23:18.120Z,13.20
2023-02-17T12:24:41.158Z,13.20
2023-02-17T12:25:49.896Z,13.20
2023-02-17T12:27:01.414Z,13.20
2023-02-17T12:28:27.922Z,13.20
2023-02-17T12:29:56.835Z,13.20
2023-02-17T12:31:11.080Z,13.20
2023-02-17T12:32:27.374Z,13.20
2023-02-17T12:33:41.941Z,13.10
2023-02-17T12:34:49.106Z,13.10
2023-02-17T12:35:55.353Z,13.10
2023-02-17T12:37:00.222Z,13.20
2023-02-17T12:38:12.171Z,13.10
2023-02-17T12:39:20.493Z,13.20
2023-02-17T12:40:35.498Z,13.20
2023-02-17T12:41:42.103Z,13.20
2023-02-17T12:42:51.544Z,13.10
2023-02-17T12:43:58.010Z,13.10
2023-02-17T12:45:06.820Z,13.10
2023-02-17T12:46:13.479Z,13.10
2023-02-17T12:47:17.511Z,13.20
2023-02-17T12:48:27.756Z,13.20
2023-02-17T12:49:36.888Z,13.20
2023-02-17T12:50:52.360Z,13.30
2023-02-17T12:51:59.960Z,13.30
2023-02-17T12:53:07.625Z,13.20
2023-02-17T12:54:17.122Z,13.20
2023-02-17T12:55:23.582Z,13.20
2023-02-17T12:56:54.963Z,13.20
2023-02-17T12:58:00.771Z,13.20
2023-02-17T12:59:12.576Z,13.20
2023-02-17T13:00:22.070Z,13.20
2023-02-17T13:01:26.485Z,13.20
2023-02-17T13:02:30.782Z,13.30
2023-02-17T13:03:34.808Z,13.20
2023-02-17T13:04:39.116Z,13.30
2023-02-17T13:05:48.986Z,13.30
2023-02-17T13:06:57.491Z,13.30
2023-02-17T13:08:05.706Z,13.30
2023-02-17T13:09:22.039Z,13.30
2023-02-17T13:10:34.503Z,13.30
2023-02-17T13:11:37.659Z,13.30
2023-02-17T13:12:40.909Z,13.30
2023-02-17T13:13:43.943Z,13.30
2023-02-17T13:14:48.182Z,13.20
2023-02-17T13:16:04.079Z,13.30
2023-02-17T13:17:06.308Z,13.30
2023-02-17T13:18:13.944Z,13.40
2023-02-17T13:19:16.216Z,13.40
2023-02-17T13:20:51.010Z,13.40
2023-02-17T13:21:55.751Z,13.50
2023-02-17T13:23:08.161Z,13.60
2023-02-17T13:24:17.032Z,13.50
2023-02-17T13:25:30.079Z,13.60
2023-02-17T13:26:35.326Z,13.60
2023-02-17T13:27:39.757Z,13.60
2023-02-17T13:28:43.219Z,13.60
2023-02-17T13:29:46.309Z,13.60
2023-02-17T13:30:52.217Z,13.60
2023-02-17T13:31:58.747Z,13.60
2023-02-17T13:33:02.577Z,13.60
2023-02-17T13:34:05.669Z,13.60
2023-02-17T13:35:30.388Z,13.60
2023-02-17T13:36:38.199Z,13.60
2023-02-17T13:37:43.741Z,13.40
2023-02-17T13:39:00.400Z,13.40
2023-02-17T13:40:25.910Z,13.50
2023-02-17T13:41:29.610Z,13.60
2023-02-17T13:42:44.087Z,13.60
2023-02-17T13:43:47.061Z,13.60
2023-02-17T13:44:52.621Z,13.60
2023-02-17T13:45:59.618Z,13.60
2023-02-17T13:47:12.366Z,13.60
2023-02-17T13:48:25.403Z,13.60
2023-02-17T13:49:32.845Z,13.60
2023-02-17T13:50:38.071Z,13.50
2023-02-17T13:51:41.248Z,13.60
2023-02-17T13:52:43.840Z,13.60
2023-02-17T13:53:51.099Z,13.60
2023-02-17T13:54:56.129Z,13.60
2023-02-17T13:56:00.469Z,13.60
2023-02-17T13:57:03.596Z,13.60
2023-02-17T13:58:06.663Z,13.70
2023-02-17T13:59:12.414Z,13.60
2023-02-17T14:00:23.256Z,13.60
2023-02-17T14:01:28.864Z,13.50
2023-02-17T14:02:36.272Z,13.50
2023-02-17T14:03:46.505Z,13.60
2023-02-17T14:04:48.702Z,13.60
2023-02-17T14:05:53.512Z,13.60
2023-02-17T14:06:59.424Z,13.60